Time;durP1;ratioP1;P1;durP2;ratioP2;P2;SDS_P1;SDS_P2;PMS_P1;PMS_P2;Temp;Humidity;BMP_temperature;BMP_pressure;BME280_temperature;BME280_humidity;BME280_pressure;Samples;Min_cycle;Max_cycle;Signal;HPM_P1;HPM_P2
2021/07/03 00:01:11;;;;;;;58.63;2.67;;;14.30;1.00;;;;;;5053749;28;20839;-68
2021/07/03 00:03:38;;;;;;;58.80;2.77;;;14.30;1.00;;;;;;5053672;28;20472;-68
2021/07/03 00:06:05;;;;;;;58.87;2.90;;;14.30;1.00;;;;;;5053886;28;20539;-68
2021/07/03 00:08:33;;;;;;;59.80;3.63;;;14.30;1.00;;;;;;5053790;28;20522;-69
2021/07/03 00:11:03;;;;;;;59.10;3.20;;;14.30;1.00;;;;;;5053551;28;20956;-68
2021/07/03 00:13:31;;;;;;;58.67;2.80;;;14.30;1.00;;;;;;5053621;28;20570;-68
2021/07/03 00:15:57;;;;;;;58.57;3.00;;;14.30;1.00;;;;;;5053722;28;21023;-68
2021/07/03 00:18:24;;;;;;;58.57;2.73;;;14.40;1.00;;;;;;5053584;28;20587;-68
2021/07/03 00:20:51;;;;;;;59.50;3.40;;;14.30;1.00;;;;;;5052505;28;20545;-68
2021/07/03 00:23:18;;;;;;;58.73;2.80;;;14.30;1.00;;;;;;5052928;28;20518;-68
2021/07/03 00:25:46;;;;;;;59.10;3.67;;;14.30;1.00;;;;;;5053421;28;20452;-68
2021/07/03 00:28:13;;;;;;;58.57;2.70;;;14.30;1.00;;;;;;5053595;28;20468;-68
2021/07/03 00:30:40;;;;;;;59.00;3.13;;;14.20;1.00;;;;;;5053266;28;21024;-68
2021/07/03 00:33:07;;;;;;;58.67;3.00;;;14.10;1.00;;;;;;5052888;28;20991;-69
2021/07/03 00:35:34;;;;;;;59.20;3.20;;;14.10;1.00;;;;;;5053417;28;20956;-69
2021/07/03 00:38:01;;;;;;;59.50;3.10;;;14.10;1.00;;;;;;5053134;28;20569;-69
2021/07/03 00:40:28;;;;;;;58.70;2.90;;;14.10;1.00;;;;;;5053056;28;20456;-69
2021/07/03 00:42:57;;;;;;;58.70;3.07;;;14.10;1.00;;;;;;5052758;28;20472;-69
2021/07/03 00:45:24;;;;;;;58.77;3.30;;;14.00;1.00;;;;;;5053191;28;20538;-69
2021/07/03 00:47:52;;;;;;;58.50;3.00;;;14.10;1.70;;;;;;5053024;28;20476;-69
2021/07/03 00:50:20;;;;;;;61.93;4.40;;;14.10;1.90;;;;;;5052942;28;20531;-69
2021/07/03 00:52:47;;;;;;;58.37;2.80;;;14.10;1.00;;;;;;5052556;28;20455;-69
2021/07/03 00:55:17;;;;;;;58.67;3.00;;;14.10;2.00;;;;;;5052841;28;20545;-69
2021/07/03 00:57:45;;;;;;;59.40;3.53;;;14.10;1.00;;;;;;5052995;28;20476;-69
2021/07/03 01:00:15;;;;;;;59.10;3.13;;;14.10;1.00;;;;;;5052849;28;20876;-69
2021/07/03 01:02:42;;;;;;;58.27;2.70;;;14.10;1.00;;;;;;5052427;28;20452;-69
2021/07/03 01:05:10;;;;;;;58.37;3.27;;;14.00;1.00;;;;;;5052519;28;20454;-69
2021/07/03 01:07:37;;;;;;;58.83;2.97;;;14.00;1.00;;;;;;5052762;28;20466;-69
2021/07/03 01:10:05;;;;;;;58.67;3.07;;;14.00;1.00;;;;;;5052674;28;20532;-69
2021/07/03 01:12:33;;;;;;;58.70;3.23;;;13.90;1.00;;;;;;5052575;28;20863;-69
2021/07/03 01:14:59;;;;;;;59.10;3.73;;;14.00;1.00;;;;;;5052683;28;20551;-70
2021/07/03 01:17:28;;;;;;;59.87;3.30;;;13.90;1.00;;;;;;5052455;28;20534;-69
2021/07/03 01:19:54;;;;;;;58.90;3.50;;;14.00;1.00;;;;;;5052094;28;20487;-69
2021/07/03 01:22:23;;;;;;;58.57;2.90;;;13.90;1.00;;;;;;5051830;28;20555;-69
2021/07/03 01:24:50;;;;;;;58.50;2.97;;;13.90;1.00;;;;;;5052438;28;20589;-69
2021/07/03 01:27:16;;;;;;;59.00;3.20;;;13.80;1.00;;;;;;5052498;28;20482;-68
2021/07/03 01:29:44;;;;;;;58.47;2.77;;;13.80;1.00;;;;;;5052108;28;20528;-69
2021/07/03 01:32:11;;;;;;;58.70;2.60;;;13.80;1.00;;;;;;5051567;28;20498;-68
2021/07/03 01:34:39;;;;;;;59.27;3.00;;;13.80;1.00;;;;;;5052294;28;20555;-68
2021/07/03 01:37:07;;;;;;;58.37;2.70;;;13.80;1.00;;;;;;5052273;28;20539;-69
2021/07/03 01:39:35;;;;;;;58.63;3.20;;;13.70;1.00;;;;;;5052019;28;20450;-69
2021/07/03 01:42:02;;;;;;;58.57;2.80;;;13.70;2.20;;;;;;5051816;28;20444;-69
2021/07/03 01:44:29;;;;;;;58.33;2.70;;;13.70;1.00;;;;;;5051857;28;20464;-69
2021/07/03 01:46:58;;;;;;;58.77;3.30;;;13.70;1.00;;;;;;5052302;28;20444;-69
2021/07/03 01:49:26;;;;;;;58.80;2.97;;;13.80;1.00;;;;;;5052065;28;20531;-69
2021/07/03 01:51:55;;;;;;;58.57;2.90;;;13.80;1.00;;;;;;5051725;28;20448;-69
2021/07/03 01:54:22;;;;;;;58.67;2.77;;;13.80;1.00;;;;;;5051910;28;21005;-69
2021/07/03 01:56:58;;;;;;;58.47;2.70;;;13.80;1.00;;;;;;5051953;28;20535;-69
2021/07/03 01:59:25;;;;;;;58.87;3.20;;;13.70;1.00;;;;;;5051584;28;20490;-69
2021/07/03 02:01:52;;;;;;;58.73;3.30;;;13.60;1.00;;;;;;5051424;28;20539;-70
2021/07/03 02:04:19;;;;;;;59.17;3.17;;;13.60;1.00;;;;;;5051823;28;20545;-69
2021/07/03 02:06:47;;;;;;;58.57;2.90;;;13.60;1.00;;;;;;5051803;28;20535;-70
2021/07/03 02:09:14;;;;;;;58.90;3.73;;;13.60;3.60;;;;;;5051715;28;20623;-69
2021/07/03 02:11:41;;;;;;;58.90;3.00;;;13.50;1.00;;;;;;5051514;28;20447;-68
2021/07/03 02:14:09;;;;;;;58.90;3.50;;;13.50;1.70;;;;;;5051971;28;20480;-70
2021/07/03 02:16:36;;;;;;;59.50;3.10;;;13.50;7.10;;;;;;5051838;28;20888;-69
2021/07/03 02:19:04;;;;;;;58.67;3.00;;;13.40;6.90;;;;;;5051666;28;20479;-69
2021/07/03 02:21:31;;;;;;;58.57;3.00;;;13.40;7.60;;;;;;5051486;28;20535;-69
2021/07/03 02:23:58;;;;;;;58.53;2.90;;;13.30;9.10;;;;;;5051388;28;20571;-68
2021/07/03 02:26:26;;;;;;;58.37;3.47;;;13.30;10.60;;;;;;5051513;28;20539;-69
2021/07/03 02:28:53;;;;;;;58.43;3.00;;;13.30;14.20;;;;;;5051734;28;20452;-68
2021/07/03 02:31:21;;;;;;;58.67;2.80;;;13.30;14.70;;;;;;5051792;28;20475;-68
2021/07/03 02:33:49;;;;;;;58.63;2.90;;;13.30;18.60;;;;;;5051411;28;20554;-69
2021/07/03 02:36:16;;;;;;;58.63;3.30;;;13.30;21.40;;;;;;5051503;28;20534;-69
2021/07/03 02:38:42;;;;;;;59.00;3.50;;;13.30;20.40;;;;;;5051368;28;20582;-69
2021/07/03 02:41:09;;;;;;;58.70;3.10;;;13.20;20.90;;;;;;5051266;28;20447;-70
2021/07/03 02:43:36;;;;;;;59.00;3.50;;;13.20;22.50;;;;;;5052955;28;20991;-69
2021/07/03 02:46:03;;;;;;;61.33;4.60;;;13.20;21.50;;;;;;5055428;28;20531;-69
2021/07/03 02:48:31;;;;;;;58.57;2.90;;;13.20;20.90;;;;;;5055366;28;20539;-69
2021/07/03 02:50:58;;;;;;;58.97;3.10;;;13.20;21.40;;;;;;5055233;28;20538;-69
2021/07/03 02:53:25;;;;;;;58.40;2.90;;;13.20;19.20;;;;;;5055285;28;20568;-68
2021/07/03 02:55:52;;;;;;;58.60;3.00;;;13.20;19.10;;;;;;5055340;28;20865;-69
2021/07/03 02:58:19;;;;;;;58.43;3.10;;;13.20;20.80;;;;;;5055150;28;20598;-69
2021/07/03 03:00:46;;;;;;;59.10;3.10;;;13.20;21.40;;;;;;5054969;28;20490;-68
2021/07/03 03:03:13;;;;;;;58.07;3.00;;;13.20;22.70;;;;;;5054590;28;21058;-69
2021/07/03 03:05:41;;;;;;;58.53;3.00;;;13.20;20.90;;;;;;5055155;28;20931;-68
2021/07/03 03:08:08;;;;;;;59.13;3.30;;;13.20;18.80;;;;;;5055028;28;20854;-68
2021/07/03 03:10:35;;;;;;;59.00;3.47;;;13.20;19.00;;;;;;5055048;28;20876;-69
2021/07/03 03:13:01;;;;;;;60.90;4.00;;;13.10;18.40;;;;;;5054438;28;20492;-69
2021/07/03 03:15:28;;;;;;;58.67;3.10;;;13.10;19.50;;;;;;5054990;28;20530;-70
2021/07/03 03:17:55;;;;;;;58.47;3.10;;;13.10;19.20;;;;;;5054688;28;20534;-69
2021/07/03 03:20:22;;;;;;;59.30;3.60;;;13.10;19.60;;;;;;5054651;28;20876;-69
2021/07/03 03:22:50;;;;;;;59.27;3.50;;;13.10;18.30;;;;;;5054053;28;21037;-69
2021/07/03 03:25:17;;;;;;;58.67;3.10;;;13.00;16.90;;;;;;5054745;28;20479;-69
2021/07/03 03:27:44;;;;;;;58.53;2.90;;;13.00;16.10;;;;;;5054406;28;20517;-69
2021/07/03 03:30:12;;;;;;;58.67;3.23;;;12.90;17.30;;;;;;5054455;28;20531;-69
2021/07/03 03:32:39;;;;;;;58.53;3.03;;;12.90;20.60;;;;;;5054269;28;20531;-69
2021/07/03 03:35:07;;;;;;;58.70;3.00;;;12.90;21.80;;;;;;5054282;28;20448;-69
2021/07/03 03:37:34;;;;;;;58.67;2.77;;;12.90;22.30;;;;;;5054308;28;20543;-69
2021/07/03 03:40:02;;;;;;;58.57;2.90;;;12.90;22.50;;;;;;5054427;28;20479;-69
2021/07/03 03:42:29;;;;;;;59.17;3.50;;;12.80;23.60;;;;;;5054425;28;20454;-69
2021/07/03 03:44:56;;;;;;;61.20;3.93;;;12.80;23.50;;;;;;5054209;28;20507;-69
2021/07/03 03:47:23;;;;;;;58.53;2.77;;;12.80;22.90;;;;;;5054351;28;20491;-69
2021/07/03 03:49:50;;;;;;;58.80;3.20;;;12.70;26.00;;;;;;5054010;28;20540;-69
2021/07/03 03:52:16;;;;;;;59.47;3.73;;;12.70;28.80;;;;;;5054012;28;20444;-69
2021/07/03 03:54:43;;;;;;;58.50;2.80;;;12.70;30.40;;;;;;5054051;28;20562;-69
2021/07/03 03:57:24;;;;;;;58.53;2.70;;;12.60;36.90;;;;;;5054069;28;20444;-69
2021/07/03 03:59:52;;;;;;;58.77;2.80;;;12.60;38.30;;;;;;5053786;28;20479;-69
2021/07/03 04:02:19;;;;;;;58.70;3.37;;;12.60;43.40;;;;;;5053599;28;20451;-69
2021/07/03 04:04:46;;;;;;;58.67;2.97;;;12.70;50.90;;;;;;5053965;28;20560;-70
2021/07/03 04:07:13;;;;;;;58.67;2.93;;;12.70;50.60;;;;;;5053919;28;20462;-69
2021/07/03 04:09:40;;;;;;;58.80;3.00;;;12.70;48.20;;;;;;5053732;28;20948;-69
2021/07/03 04:12:07;;;;;;;58.60;2.60;;;12.70;48.40;;;;;;5053472;28;20537;-69
2021/07/03 04:14:36;;;;;;;58.77;3.90;;;12.70;50.40;;;;;;5053608;28;20575;-69
2021/07/03 04:17:03;;;;;;;58.47;2.77;;;12.70;46.90;;;;;;5053522;28;20562;-69
2021/07/03 04:19:30;;;;;;;59.17;3.00;;;12.60;49.50;;;;;;5053626;28;20490;-69
2021/07/03 04:21:57;;;;;;;59.53;3.53;;;12.60;50.10;;;;;;5053518;28;20538;-69
2021/07/03 04:24:24;;;;;;;58.57;2.47;;;12.60;50.80;;;;;;5053276;28;21076;-70
2021/07/03 04:26:51;;;;;;;58.60;2.80;;;12.60;53.80;;;;;;5053487;28;20452;-69
2021/07/03 04:29:19;;;;;;;59.10;2.90;;;12.60;58.10;;;;;;5053305;28;20444;-69
2021/07/03 04:31:47;;;;;;;58.53;2.80;;;12.70;61.10;;;;;;5053246;28;20444;-69
2021/07/03 04:34:14;;;;;;;59.10;3.53;;;12.70;60.40;;;;;;5053152;28;20551;-69
2021/07/03 04:36:40;;;;;;;58.70;2.70;;;12.80;61.50;;;;;;5053388;28;20450;-69
2021/07/03 04:39:07;;;;;;;58.40;2.60;;;12.80;60.70;;;;;;5053331;28;20472;-69
2021/07/03 04:41:35;;;;;;;58.27;2.53;;;12.90;60.30;;;;;;5052975;28;20836;-69
2021/07/03 04:44:02;;;;;;;58.67;3.00;;;12.90;58.00;;;;;;5052889;28;20896;-69
2021/07/03 04:46:29;;;;;;;58.40;2.60;;;12.90;55.50;;;;;;5053203;28;20451;-69
2021/07/03 04:48:57;;;;;;;58.60;2.83;;;12.90;55.40;;;;;;5053195;28;20823;-69
2021/07/03 04:51:24;;;;;;;59.57;3.47;;;12.90;56.40;;;;;;5053160;28;20543;-69
2021/07/03 04:53:50;;;;;;;58.50;2.83;;;12.90;57.10;;;;;;5052821;28;20992;-69
2021/07/03 04:56:17;;;;;;;59.20;3.00;;;13.00;57.60;;;;;;5052689;28;20485;-69
2021/07/03 04:58:44;;;;;;;58.27;2.80;;;13.00;59.10;;;;;;5052675;28;20510;-69
2021/07/03 05:01:12;;;;;;;58.60;3.00;;;13.00;58.20;;;;;;5052929;28;20447;-69
2021/07/03 05:03:38;;;;;;;58.37;2.60;;;13.10;55.80;;;;;;5052460;28;20464;-69
2021/07/03 05:06:07;;;;;;;58.43;2.60;;;13.10;56.80;;;;;;5052252;28;20859;-70
2021/07/03 05:08:34;;;;;;;59.10;3.53;;;13.10;56.40;;;;;;5052814;28;20883;-69
2021/07/03 05:11:01;;;;;;;58.37;2.90;;;13.20;59.60;;;;;;5052344;28;20448;-69
2021/07/03 05:13:28;;;;;;;58.90;3.17;;;13.20;58.40;;;;;;5052454;28;20504;-69
2021/07/03 05:15:55;;;;;;;58.23;2.70;;;13.30;56.10;;;;;;5052439;28;20536;-69
2021/07/03 05:18:22;;;;;;;58.70;3.37;;;13.30;57.10;;;;;;5052504;28;20535;-69
2021/07/03 05:20:49;;;;;;;58.47;3.03;;;13.30;54.80;;;;;;5052519;28;20506;-69
2021/07/03 05:23:17;;;;;;;58.90;3.37;;;13.40;54.10;;;;;;5051849;28;20563;-69
2021/07/03 05:25:45;;;;;;;58.57;2.77;;;13.40;52.50;;;;;;5052243;28;21011;-69
2021/07/03 05:28:11;;;;;;;58.33;2.77;;;13.50;53.60;;;;;;5052506;28;20546;-69
2021/07/03 05:30:39;;;;;;;59.70;3.17;;;13.50;52.50;;;;;;5052328;28;21011;-69
2021/07/03 05:33:06;;;;;;;58.60;2.80;;;13.60;51.50;;;;;;5052059;28;20575;-69
2021/07/03 05:35:33;;;;;;;58.30;2.53;;;13.60;50.70;;;;;;5052431;28;20489;-69
2021/07/03 05:38:00;;;;;;;58.40;3.00;;;13.70;50.90;;;;;;5052143;28;20814;-69
2021/07/03 05:40:29;;;;;;;58.27;2.77;;;13.80;51.10;;;;;;5051672;28;20578;-69
2021/07/03 05:42:56;;;;;;;58.60;3.40;;;13.90;50.40;;;;;;5051858;28;20526;-69
2021/07/03 05:45:23;;;;;;;58.47;2.80;;;14.00;48.00;;;;;;5052157;28;20531;-69
2021/07/03 05:47:53;;;;;;;58.30;3.20;;;14.10;45.90;;;;;;5051937;28;20533;-69
2021/07/03 05:50:22;;;;;;;58.47;3.20;;;14.20;44.20;;;;;;5051751;28;20476;-69
2021/07/03 05:52:49;;;;;;;59.27;2.80;;;14.20;41.90;;;;;;5050231;28;20542;-69
2021/07/03 05:55:17;;;;;;;58.50;2.93;;;14.40;41.00;;;;;;5051491;28;21026;-69
2021/07/03 05:57:45;;;;;;;58.20;2.70;;;14.50;40.60;;;;;;5051840;28;20532;-69
2021/07/03 06:00:14;;;;;;;58.43;2.87;;;14.50;35.70;;;;;;5051889;28;20527;-69
2021/07/03 06:02:40;;;;;;;58.27;2.90;;;14.60;32.40;;;;;;5051545;28;20450;-70
2021/07/03 06:05:09;;;;;;;58.43;3.03;;;14.70;32.10;;;;;;5051790;28;20475;-69
2021/07/03 06:07:36;;;;;;;58.57;2.93;;;14.80;27.80;;;;;;5051709;28;20454;-69
2021/07/03 06:10:03;;;;;;;58.40;3.10;;;14.90;24.40;;;;;;5051636;28;20967;-70
2021/07/03 06:12:30;;;;;;;58.30;2.80;;;15.00;21.90;;;;;;5051608;28;20480;-69
2021/07/03 06:14:58;;;;;;;60.50;3.93;;;15.10;18.00;;;;;;5051702;28;20500;-70
2021/07/03 06:17:25;;;;;;;58.70;3.37;;;15.20;15.20;;;;;;5051624;28;20485;-69
2021/07/03 06:19:52;;;;;;;58.17;2.90;;;15.30;8.40;;;;;;5055633;28;20482;-68
2021/07/03 06:22:19;;;;;;;58.07;2.67;;;15.40;3.70;;;;;;5055523;28;21023;-70
2021/07/03 06:24:47;;;;;;;58.37;2.70;;;15.50;1.00;;;;;;5055690;28;20490;-69
2021/07/03 06:27:15;;;;;;;58.07;2.80;;;15.60;1.00;;;;;;5055785;28;20456;-69
2021/07/03 06:29:42;;;;;;;58.37;3.27;;;15.70;1.00;;;;;;5055646;28;20533;-69
2021/07/03 06:32:11;;;;;;;58.67;3.70;;;15.80;1.00;;;;;;5055235;28;20894;-69
2021/07/03 06:34:38;;;;;;;58.97;3.67;;;15.90;1.00;;;;;;5055492;28;21036;-69
2021/07/03 06:37:05;;;;;;;57.97;2.60;;;16.00;1.00;;;;;;5054818;28;20449;-69
2021/07/03 06:39:32;;;;;;;60.30;4.10;;;16.20;1.00;;;;;;5055410;28;20573;-69
2021/07/03 06:41:58;;;;;;;58.40;2.90;;;16.20;1.00;;;;;;5055239;28;20541;-69
2021/07/03 06:44:26;;;;;;;58.90;3.10;;;16.40;1.00;;;;;;5055331;28;20560;-69
2021/07/03 06:46:53;;;;;;;58.30;2.80;;;16.50;1.00;;;;;;5055286;28;20449;-69
2021/07/03 06:49:21;;;;;;;58.67;2.90;;;16.60;1.00;;;;;;5055578;28;20444;-69
2021/07/03 06:51:48;;;;;;;58.90;3.17;;;16.70;1.00;;;;;;5055314;28;20629;-70
2021/07/03 06:54:15;;;;;;;58.50;3.20;;;16.80;1.00;;;;;;5055347;28;20569;-69
2021/07/03 06:56:42;;;;;;;58.40;2.80;;;17.00;1.00;;;;;;5055325;28;20829;-69
2021/07/03 06:59:09;;;;;;;58.67;3.40;;;17.10;1.00;;;;;;5055193;28;20900;-69
2021/07/03 07:01:36;;;;;;;58.40;2.97;;;17.20;1.00;;;;;;5054837;28;20553;-69
2021/07/03 07:04:03;;;;;;;58.50;2.50;;;17.30;1.00;;;;;;5055299;28;20467;-69
2021/07/03 07:06:33;;;;;;;58.27;2.63;;;17.40;1.00;;;;;;5055086;28;20541;-70
2021/07/03 07:09:00;;;;;;;58.47;2.50;;;17.60;1.00;;;;;;5055031;28;20458;-69
2021/07/03 07:11:27;;;;;;;58.40;3.17;;;17.70;1.00;;;;;;5054806;28;20451;-69
2021/07/03 07:13:53;;;;;;;57.73;2.70;;;17.80;1.00;;;;;;5054773;28;20525;-69
2021/07/03 07:16:20;;;;;;;58.47;2.83;;;17.90;1.00;;;;;;5054801;28;20537;-70
2021/07/03 07:18:47;;;;;;;58.30;2.63;;;18.10;1.00;;;;;;5054945;28;20481;-69
2021/07/03 07:21:14;;;;;;;58.33;2.40;;;18.20;1.00;;;;;;5054693;28;20613;-70
2021/07/03 07:23:42;;;;;;;58.47;2.93;;;18.40;1.00;;;;;;5054372;28;20900;-69
2021/07/03 07:26:09;;;;;;;58.93;2.97;;;18.50;1.00;;;;;;5054657;28;20451;-69
2021/07/03 07:28:36;;;;;;;59.07;3.27;;;18.60;1.00;;;;;;5054034;28;20479;-69
2021/07/03 07:31:03;;;;;;;58.40;3.00;;;18.80;1.00;;;;;;5054659;28;20479;-70
2021/07/03 07:33:30;;;;;;;58.90;2.83;;;18.90;1.00;;;;;;5054474;28;20510;-69
2021/07/03 07:35:57;;;;;;;59.10;3.63;;;19.00;1.00;;;;;;5054507;28;20535;-69
2021/07/03 07:38:24;;;;;;;58.07;2.53;;;19.10;1.00;;;;;;5054533;28;20502;-69
2021/07/03 07:40:52;;;;;;;58.17;2.70;;;19.20;1.00;;;;;;5054223;28;21003;-69
2021/07/03 07:43:19;;;;;;;58.57;2.90;;;19.30;1.00;;;;;;5053974;28;20880;-68
2021/07/03 07:45:46;;;;;;;58.60;3.07;;;19.40;1.00;;;;;;5054451;28;20495;-68
2021/07/03 07:48:12;;;;;;;58.37;2.80;;;19.50;1.00;;;;;;5054412;28;20906;-69
2021/07/03 07:50:40;;;;;;;57.77;2.77;;;19.70;1.00;;;;;;5054229;28;20530;-69
2021/07/03 07:53:07;;;;;;;58.37;2.70;;;19.80;1.00;;;;;;5053885;28;20472;-68
2021/07/03 07:55:34;;;;;;;58.10;2.77;;;19.90;1.00;;;;;;5054027;28;20536;-69
2021/07/03 07:58:02;;;;;;;58.20;2.50;;;20.00;1.00;;;;;;5054291;28;20483;-69
2021/07/03 08:00:29;;;;;;;58.10;2.70;;;20.00;1.00;;;;;;5054137;28;20484;-69
2021/07/03 08:02:56;;;;;;;58.50;3.33;;;20.10;1.00;;;;;;5053704;28;20496;-69
2021/07/03 08:05:24;;;;;;;58.17;2.60;;;20.10;1.00;;;;;;5053986;28;20533;-69
2021/07/03 08:07:51;;;;;;;58.80;3.03;;;20.20;1.00;;;;;;5053901;28;20452;-70
2021/07/03 08:10:19;;;;;;;57.87;2.60;;;20.30;1.00;;;;;;5053759;28;20452;-69
2021/07/03 08:12:46;;;;;;;58.90;3.00;;;20.30;1.00;;;;;;5053619;28;20452;-69
2021/07/03 08:15:15;;;;;;;59.00;2.73;;;20.40;1.00;;;;;;5053725;28;20952;-69
2021/07/03 08:17:45;;;;;;;58.00;2.67;;;20.50;1.00;;;;;;5053825;28;20811;-69
2021/07/03 08:20:15;;;;;;;58.40;3.90;;;20.60;1.00;;;;;;5053889;28;20563;-69
2021/07/03 08:22:42;;;;;;;58.13;2.40;;;20.70;1.00;;;;;;5053085;28;20648;-69
2021/07/03 08:25:10;;;;;;;58.50;2.67;;;20.90;1.00;;;;;;5053831;28;20539;-69
2021/07/03 08:27:37;;;;;;;58.03;2.90;;;21.00;1.00;;;;;;5053625;28;20441;-70
2021/07/03 08:30:05;;;;;;;58.40;2.70;;;21.10;1.00;;;;;;5053554;28;20477;-69
2021/07/03 08:32:34;;;;;;;58.33;2.80;;;21.00;1.00;;;;;;5053199;28;20883;-70
2021/07/03 08:35:01;;;;;;;58.27;3.17;;;21.10;1.00;;;;;;5053310;28;20826;-70
2021/07/03 08:37:28;;;;;;;57.87;2.80;;;21.20;1.00;;;;;;5053511;28;20548;-69
2021/07/03 08:39:54;;;;;;;58.73;3.37;;;21.30;1.00;;;;;;5051584;28;20485;-69
2021/07/03 08:42:22;;;;;;;58.77;3.50;;;21.40;1.00;;;;;;5052235;28;20816;-70
2021/07/03 08:44:50;;;;;;;58.30;2.57;;;21.50;1.00;;;;;;5052914;28;20889;-69
2021/07/03 08:47:18;;;;;;;58.20;3.03;;;21.60;1.00;;;;;;5052054;28;20536;-69
2021/07/03 08:49:54;;;;;;;57.87;2.47;;;21.70;1.00;;;;;;5036993;28;20534;-70
2021/07/03 08:52:21;;;;;;;58.00;2.40;;;21.80;1.00;;;;;;5032775;28;20946;-70
2021/07/03 08:54:55;;;;;;;58.27;2.90;;;21.90;1.00;;;;;;5032990;28;20470;-70
2021/07/03 08:57:22;;;;;;;58.13;2.50;;;22.00;1.00;;;;;;5033147;28;20454;-69
2021/07/03 08:59:55;;;;;;;58.40;2.80;;;22.10;1.00;;;;;;5032977;28;20496;-70
2021/07/03 09:02:32;;;;;;;58.07;2.73;;;22.20;1.00;;;;;;5032443;28;20452;-69
2021/07/03 09:05:00;;;;;;;58.33;2.30;;;22.30;1.00;;;;;;5032844;28;21142;-69
2021/07/03 09:07:34;;;;;;;58.60;3.03;;;22.40;1.00;;;;;;5033161;28;20837;-69
2021/07/03 09:10:01;;;;;;;58.80;3.37;;;22.50;1.00;;;;;;5032856;28;20443;-70
2021/07/03 09:12:29;;;;;;;59.47;3.40;;;22.60;1.00;;;;;;5032409;28;20472;-70
2021/07/03 09:14:56;;;;;;;57.97;2.60;;;22.70;1.00;;;;;;5032364;28;20476;-67
2021/07/03 09:17:24;;;;;;;58.67;2.90;;;22.80;1.00;;;;;;5037863;28;20545;-67
2021/07/03 09:19:54;;;;;;;58.20;2.53;;;22.90;1.00;;;;;;5052343;28;20989;-67
2021/07/03 09:22:22;;;;;;;58.17;2.53;;;23.10;1.00;;;;;;5052063;28;20459;-67
2021/07/03 09:24:49;;;;;;;58.50;2.80;;;23.20;1.00;;;;;;5052361;28;20567;-67
2021/07/03 09:27:22;;;;;;;58.20;2.57;;;23.20;1.00;;;;;;5052167;28;20478;-67
2021/07/03 09:29:51;;;;;;;57.97;2.50;;;23.20;1.00;;;;;;5052522;28;20451;-67
2021/07/03 09:32:17;;;;;;;58.07;2.50;;;23.30;1.00;;;;;;5052006;28;20539;-68
2021/07/03 09:34:44;;;;;;;58.20;2.77;;;23.50;1.00;;;;;;5052000;28;20556;-68
2021/07/03 09:37:12;;;;;;;58.20;2.60;;;23.60;1.00;;;;;;5052245;28;20476;-68
2021/07/03 09:39:40;;;;;;;57.87;2.50;;;23.80;1.00;;;;;;5051907;28;20450;-68
2021/07/03 09:42:14;;;;;;;58.40;2.90;;;24.00;1.00;;;;;;5051986;28;20482;-69
2021/07/03 09:44:41;;;;;;;58.17;2.50;;;24.10;1.00;;;;;;5052189;28;20496;-70
2021/07/03 09:47:17;;;;;;;59.13;4.00;;;24.20;1.00;;;;;;5052004;28;20961;-69
2021/07/03 09:49:44;;;;;;;58.30;2.50;;;24.30;1.00;;;;;;5052008;28;20453;-68
2021/07/03 09:52:12;;;;;;;58.17;2.77;;;24.40;1.00;;;;;;5051389;28;20530;-69
2021/07/03 09:54:41;;;;;;;57.93;2.47;;;24.50;1.00;;;;;;5051760;28;20983;-70
2021/07/03 09:57:10;;;;;;;58.47;3.67;;;24.70;1.00;;;;;;5051636;28;20545;-69
2021/07/03 09:59:37;;;;;;;58.50;2.80;;;24.80;1.00;;;;;;5050653;28;21217;-69
2021/07/03 10:02:05;;;;;;;58.20;2.50;;;24.90;1.00;;;;;;5051440;28;21024;-69
2021/07/03 10:04:32;;;;;;;58.20;3.13;;;24.90;1.00;;;;;;5039368;28;20555;-69
2021/07/03 10:07:02;;;;;;;58.10;2.40;;;25.10;1.00;;;;;;5045683;28;20459;-70
2021/07/03 10:09:35;;;;;;;58.03;2.50;;;25.30;1.00;;;;;;5051841;28;20455;-69
2021/07/03 10:12:07;;;;;;;58.57;3.10;;;25.50;1.00;;;;;;5051631;28;20448;-69
2021/07/03 10:14:39;;;;;;;58.17;2.60;;;25.60;1.00;;;;;;5051746;28;20468;-69
2021/07/03 10:17:07;;;;;;;58.30;2.70;;;25.70;1.00;;;;;;5052121;28;20550;-69
2021/07/03 10:19:35;;;;;;;57.90;2.60;;;25.70;1.00;;;;;;5051709;28;20544;-69
2021/07/03 10:22:13;;;;;;;58.07;2.40;;;26.00;1.00;;;;;;5051228;28;21019;-69
2021/07/03 10:24:44;;;;;;;58.30;2.70;;;26.40;1.00;;;;;;5051506;28;21018;-69
2021/07/03 10:27:23;;;;;;;58.50;2.90;;;26.90;1.00;;;;;;5051533;28;20529;-69
2021/07/03 10:29:53;;;;;;;57.90;2.30;;;27.80;1.00;;;;;;5051348;28;20535;-69
2021/07/03 10:32:22;;;;;;;58.50;2.90;;;28.90;1.00;;;;;;5051182;28;20483;-70
2021/07/03 10:34:49;;;;;;;57.97;2.40;;;29.90;1.00;;;;;;5046986;28;20473;-67
2021/07/03 10:37:18;;;;;;;57.73;2.17;;;31.10;1.00;;;;;;5037708;28;20483;-68
2021/07/03 10:39:45;;;;;;;57.37;2.50;;;32.10;1.00;;;;;;5051397;28;20453;-71
2021/07/03 10:42:12;;;;;;;57.70;2.70;;;33.00;1.00;;;;;;5050993;28;20844;-71
2021/07/03 10:44:41;;;;;;;57.73;2.53;;;33.80;1.00;;;;;;5051551;28;20510;-71
2021/07/03 10:47:09;;;;;;;57.90;2.30;;;34.50;1.00;;;;;;5051230;28;20539;-71
2021/07/03 10:49:37;;;;;;;57.90;2.57;;;34.50;1.00;;;;;;5051294;28;20543;-71
2021/07/03 10:52:12;;;;;;;57.27;2.37;;;34.60;1.00;;;;;;5051130;28;20448;-71
2021/07/03 10:54:39;;;;;;;57.67;2.87;;;35.20;1.00;;;;;;5051193;28;20467;-68
2021/07/03 10:57:08;;;;;;;57.53;2.40;;;35.90;1.00;;;;;;5051407;28;20543;-69
2021/07/03 10:59:38;;;;;;;57.90;2.53;;;36.50;1.00;;;;;;5051475;28;20444;-68
2021/07/03 11:02:10;;;;;;;57.47;2.13;;;36.70;1.00;;;;;;5051018;28;20526;-68
2021/07/03 11:04:45;;;;;;;57.47;2.53;;;36.80;1.00;;;;;;5052880;28;20472;-69
2021/07/03 11:07:13;;;;;;;57.30;2.40;;;36.20;1.00;;;;;;5053548;28;20459;-68
2021/07/03 11:09:40;;;;;;;57.30;2.40;;;36.10;1.00;;;;;;5040034;28;20536;-69
2021/07/03 11:12:17;;;;;;;57.10;2.03;;;36.40;1.00;;;;;;5034529;28;20455;-69
2021/07/03 11:14:51;;;;;;;57.60;2.60;;;37.00;1.00;;;;;;5034945;28;20849;-69
2021/07/03 11:17:20;;;;;;;57.40;2.57;;;37.40;1.00;;;;;;5034893;28;20491;-69
2021/07/03 11:19:50;;;;;;;57.03;2.23;;;37.80;1.00;;;;;;5034615;28;20489;-70
2021/07/03 11:22:21;;;;;;;57.70;2.73;;;38.10;1.00;;;;;;5034454;28;20591;-70
2021/07/03 11:24:50;;;;;;;56.57;2.40;;;38.10;1.00;;;;;;5034850;28;20563;-70
2021/07/03 11:27:27;;;;;;;57.37;2.90;;;38.20;1.00;;;;;;5034579;28;20481;-69
2021/07/03 11:29:54;;;;;;;57.27;2.30;;;38.50;1.00;;;;;;5034311;28;20528;-69
2021/07/03 11:32:23;;;;;;;57.87;2.67;;;38.70;1.00;;;;;;5034272;28;20444;-71
2021/07/03 11:34:54;;;;;;;57.60;2.50;;;39.10;1.00;;;;;;5034377;28;20487;-70
2021/07/03 11:37:33;;;;;;;57.10;2.47;;;38.70;1.00;;;;;;5033303;28;20502;-71
2021/07/03 11:40:02;;;;;;;57.40;2.60;;;38.30;1.00;;;;;;5041696;28;20530;-68
2021/07/03 11:42:30;;;;;;;57.27;2.73;;;38.40;1.00;;;;;;5053914;28;20571;-68
2021/07/03 11:44:57;;;;;;;57.47;2.60;;;38.50;1.00;;;;;;5054023;28;20556;-70
2021/07/03 11:47:37;;;;;;;57.07;2.30;;;39.10;1.00;;;;;;5054381;28;20535;-70
2021/07/03 11:50:06;;;;;;;56.63;2.73;;;39.60;1.00;;;;;;5054275;28;20448;-70
2021/07/03 11:52:42;;;;;;;57.40;2.50;;;40.10;1.00;;;;;;5053771;28;20445;-70
2021/07/03 11:55:10;;;;;;;57.03;2.17;;;40.20;1.00;;;;;;5054078;28;20534;-70
2021/07/03 11:57:38;;;;;;;57.50;2.50;;;40.00;1.00;;;;;;5054066;28;20539;-71
2021/07/03 12:00:07;;;;;;;57.77;3.07;;;40.00;1.00;;;;;;5054091;28;20480;-70
2021/07/03 12:02:37;;;;;;;57.40;2.43;;;39.70;1.00;;;;;;5053574;28;20488;-70
2021/07/03 12:05:05;;;;;;;56.87;2.70;;;38.40;1.00;;;;;;5054074;28;20455;-70
2021/07/03 12:07:35;;;;;;;57.50;2.30;;;36.80;1.00;;;;;;5054054;28;20476;-70
2021/07/03 12:10:03;;;;;;;57.10;2.23;;;36.20;1.00;;;;;;5052572;28;21160;-67
2021/07/03 12:12:30;;;;;;;57.20;2.53;;;36.60;1.00;;;;;;5053639;28;20821;-67
2021/07/03 12:15:01;;;;;;;57.73;2.70;;;37.30;1.00;;;;;;5052974;28;20464;-67
2021/07/03 12:17:28;;;;;;;57.17;2.63;;;38.00;1.00;;;;;;5053248;28;20543;-70
2021/07/03 12:20:08;;;;;;;57.17;2.40;;;38.90;1.00;;;;;;5053747;28;20452;-70
2021/07/03 12:22:36;;;;;;;57.40;2.73;;;39.30;1.00;;;;;;5053008;28;21036;-69
2021/07/03 12:25:14;;;;;;;57.10;2.30;;;39.30;1.00;;;;;;5053510;28;20960;-68
2021/07/03 12:27:41;;;;;;;57.80;2.50;;;39.10;1.00;;;;;;5053616;28;20448;-69
2021/07/03 12:30:10;;;;;;;57.10;2.10;;;39.20;1.00;;;;;;5053378;28;20989;-69
2021/07/03 12:32:37;;;;;;;58.90;2.67;;;39.50;1.00;;;;;;5052895;28;20481;-69
2021/07/03 12:35:14;;;;;;;57.00;2.30;;;40.30;1.00;;;;;;5053536;28;20535;-68
2021/07/03 12:37:41;;;;;;;57.20;2.67;;;41.10;1.00;;;;;;5053239;28;21031;-69
2021/07/03 12:40:12;;;;;;;56.90;2.50;;;41.60;1.00;;;;;;5053267;28;21000;-69
2021/07/03 12:42:40;;;;;;;56.77;2.20;;;41.90;1.00;;;;;;5052841;28;20853;-68
2021/07/03 12:45:09;;;;;;;57.30;2.37;;;41.80;1.00;;;;;;5047536;28;20944;-68
2021/07/03 12:47:38;;;;;;;57.40;2.30;;;41.30;1.00;;;;;;5040506;28;20452;-69